sensor_id;sensor_type;location;lat;lon;timestamp;P1;durP1;ratioP1;P2;durP2;ratioP2
13475;SDS011;6810;63.824;20.288;2022-09-29T00:01:20;1.73;;;1.33;;
13475;SDS011;6810;63.824;20.288;2022-09-29T00:04:07;1.20;;;1.10;;
13475;SDS011;6810;63.824;20.288;2022-09-29T00:06:54;2.17;;;1.50;;
13475;SDS011;6810;63.824;20.288;2022-09-29T00:09:41;1.60;;;1.40;;
13475;SDS011;6810;63.824;20.288;2022-09-29T00:12:28;2.23;;;1.30;;
13475;SDS011;6810;63.824;20.288;2022-09-29T00:15:15;1.50;;;1.40;;
13475;SDS011;6810;63.824;20.288;2022-09-29T00:18:02;1.50;;;1.10;;
13475;SDS011;6810;63.824;20.288;2022-09-29T00:20:56;1.20;;;1.10;;
13475;SDS011;6810;63.824;20.288;2022-09-29T00:23:44;1.50;;;1.40;;
13475;SDS011;6810;63.824;20.288;2022-09-29T00:26:32;1.20;;;1.10;;
13475;SDS011;6810;63.824;20.288;2022-09-29T00:29:19;2.33;;;1.30;;
13475;SDS011;6810;63.824;20.288;2022-09-29T00:32:06;1.40;;;1.30;;
13475;SDS011;6810;63.824;20.288;2022-09-29T00:34:53;1.73;;;1.30;;
13475;SDS011;6810;63.824;20.288;2022-09-29T00:37:40;1.30;;;1.20;;
13475;SDS011;6810;63.824;20.288;2022-09-29T00:40:27;2.77;;;1.00;;
13475;SDS011;6810;63.824;20.288;2022-09-29T00:43:18;1.30;;;1.20;;
13475;SDS011;6810;63.824;20.288;2022-09-29T00:46:31;1.33;;;0.80;;
13475;SDS011;6810;63.824;20.288;2022-09-29T00:49:28;1.00;;;0.90;;
13475;SDS011;6810;63.824;20.288;2022-09-29T00:52:35;1.23;;;1.10;;
13475;SDS011;6810;63.824;20.288;2022-09-29T00:55:27;1.30;;;1.20;;
13475;SDS011;6810;63.824;20.288;2022-09-29T00:58:27;1.00;;;0.90;;
13475;SDS011;6810;63.824;20.288;2022-09-29T01:01:22;1.27;;;1.00;;
13475;SDS011;6810;63.824;20.288;2022-09-29T01:04:13;2.27;;;0.87;;
13475;SDS011;6810;63.824;20.288;2022-09-29T01:07:04;1.20;;;1.10;;
13475;SDS011;6810;63.824;20.288;2022-09-29T01:09:51;1.00;;;0.90;;
13475;SDS011;6810;63.824;20.288;2022-09-29T01:12:42;1.47;;;0.90;;
13475;SDS011;6810;63.824;20.288;2022-09-29T01:15:31;1.77;;;1.00;;
13475;SDS011;6810;63.824;20.288;2022-09-29T01:18:18;1.27;;;0.80;;
13475;SDS011;6810;63.824;20.288;2022-09-29T01:33:37;1.00;;;0.87;;
13475;SDS011;6810;63.824;20.288;2022-09-29T01:43:07;1.13;;;0.90;;
13475;SDS011;6810;63.824;20.288;2022-09-29T01:46:03;2.40;;;1.00;;
13475;SDS011;6810;63.824;20.288;2022-09-29T01:48:58;0.87;;;0.83;;
13475;SDS011;6810;63.824;20.288;2022-09-29T01:51:52;1.90;;;0.87;;
13475;SDS011;6810;63.824;20.288;2022-09-29T01:55:04;0.70;;;0.70;;
13475;SDS011;6810;63.824;20.288;2022-09-29T01:58:03;0.80;;;0.80;;
13475;SDS011;6810;63.824;20.288;2022-09-29T02:00:54;1.47;;;0.90;;
13475;SDS011;6810;63.824;20.288;2022-09-29T02:03:49;1.10;;;1.00;;
13475;SDS011;6810;63.824;20.288;2022-09-29T02:07:03;0.80;;;0.80;;
13475;SDS011;6810;63.824;20.288;2022-09-29T02:09:59;3.17;;;1.20;;
13475;SDS011;6810;63.824;20.288;2022-09-29T02:12:50;1.13;;;0.80;;
13475;SDS011;6810;63.824;20.288;2022-09-29T02:15:41;1.10;;;1.00;;
13475;SDS011;6810;63.824;20.288;2022-09-29T02:18:36;0.97;;;0.87;;
13475;SDS011;6810;63.824;20.288;2022-09-29T02:21:54;1.57;;;0.90;;
13475;SDS011;6810;63.824;20.288;2022-09-29T02:24:41;1.10;;;0.80;;
13475;SDS011;6810;63.824;20.288;2022-09-29T02:27:28;1.13;;;1.00;;
13475;SDS011;6810;63.824;20.288;2022-09-29T02:30:15;0.90;;;0.60;;
13475;SDS011;6810;63.824;20.288;2022-09-29T02:33:03;1.07;;;0.97;;
13475;SDS011;6810;63.824;20.288;2022-09-29T02:36:16;3.20;;;1.00;;
13475;SDS011;6810;63.824;20.288;2022-09-29T02:45:44;1.00;;;0.80;;
13475;SDS011;6810;63.824;20.288;2022-09-29T02:48:54;1.40;;;0.90;;
13475;SDS011;6810;63.824;20.288;2022-09-29T02:51:49;1.77;;;0.97;;
13475;SDS011;6810;63.824;20.288;2022-09-29T02:57:42;1.63;;;0.80;;
13475;SDS011;6810;63.824;20.288;2022-09-29T03:00:21;1.53;;;1.03;;
13475;SDS011;6810;63.824;20.288;2022-09-29T03:02:49;1.03;;;0.83;;
13475;SDS011;6810;63.824;20.288;2022-09-29T03:05:18;1.27;;;0.90;;
13475;SDS011;6810;63.824;20.288;2022-09-29T03:07:46;2.13;;;1.07;;
13475;SDS011;6810;63.824;20.288;2022-09-29T03:10:14;1.33;;;1.00;;
13475;SDS011;6810;63.824;20.288;2022-09-29T03:12:43;1.63;;;0.87;;
13475;SDS011;6810;63.824;20.288;2022-09-29T03:15:10;2.13;;;1.07;;
13475;SDS011;6810;63.824;20.288;2022-09-29T03:17:38;1.20;;;1.10;;
13475;SDS011;6810;63.824;20.288;2022-09-29T03:20:25;1.93;;;0.80;;
13475;SDS011;6810;63.824;20.288;2022-09-29T03:23:13;1.93;;;1.00;;
13475;SDS011;6810;63.824;20.288;2022-09-29T03:25:59;1.40;;;1.00;;
13475;SDS011;6810;63.824;20.288;2022-09-29T03:28:46;1.57;;;1.00;;
13475;SDS011;6810;63.824;20.288;2022-09-29T03:31:33;1.17;;;1.10;;
13475;SDS011;6810;63.824;20.288;2022-09-29T03:34:21;1.17;;;1.07;;
13475;SDS011;6810;63.824;20.288;2022-09-29T03:37:07;1.60;;;1.10;;
13475;SDS011;6810;63.824;20.288;2022-09-29T03:39:55;1.10;;;0.80;;
13475;SDS011;6810;63.824;20.288;2022-09-29T03:42:44;2.40;;;1.17;;
13475;SDS011;6810;63.824;20.288;2022-09-29T03:45:31;1.60;;;1.00;;
13475;SDS011;6810;63.824;20.288;2022-09-29T03:48:18;1.70;;;1.23;;
13475;SDS011;6810;63.824;20.288;2022-09-29T03:51:07;2.80;;;1.13;;
13475;SDS011;6810;63.824;20.288;2022-09-29T03:53:54;1.47;;;1.00;;
13475;SDS011;6810;63.824;20.288;2022-09-29T03:56:41;2.10;;;1.00;;
13475;SDS011;6810;63.824;20.288;2022-09-29T03:59:28;2.63;;;1.30;;
13475;SDS011;6810;63.824;20.288;2022-09-29T04:02:15;1.10;;;0.90;;
13475;SDS011;6810;63.824;20.288;2022-09-29T04:05:02;2.67;;;1.30;;
13475;SDS011;6810;63.824;20.288;2022-09-29T04:07:50;2.17;;;1.30;;
13475;SDS011;6810;63.824;20.288;2022-09-29T04:10:37;2.17;;;1.20;;
13475;SDS011;6810;63.824;20.288;2022-09-29T04:13:24;1.43;;;1.10;;
13475;SDS011;6810;63.824;20.288;2022-09-29T04:16:11;2.67;;;1.20;;
13475;SDS011;6810;63.824;20.288;2022-09-29T04:18:58;1.67;;;1.30;;
13475;SDS011;6810;63.824;20.288;2022-09-29T04:21:45;2.33;;;1.20;;
13475;SDS011;6810;63.824;20.288;2022-09-29T04:24:32;1.93;;;1.27;;
13475;SDS011;6810;63.824;20.288;2022-09-29T04:27:19;1.50;;;1.10;;
13475;SDS011;6810;63.824;20.288;2022-09-29T04:30:06;1.43;;;1.07;;
13475;SDS011;6810;63.824;20.288;2022-09-29T04:32:54;1.30;;;1.10;;
13475;SDS011;6810;63.824;20.288;2022-09-29T04:35:41;3.77;;;1.20;;
13475;SDS011;6810;63.824;20.288;2022-09-29T04:38:28;1.27;;;1.10;;
13475;SDS011;6810;63.824;20.288;2022-09-29T04:41:15;1.20;;;1.00;;
13475;SDS011;6810;63.824;20.288;2022-09-29T04:44:02;1.10;;;1.00;;
13475;SDS011;6810;63.824;20.288;2022-09-29T04:46:50;1.57;;;1.10;;
13475;SDS011;6810;63.824;20.288;2022-09-29T04:49:37;1.47;;;1.30;;
13475;SDS011;6810;63.824;20.288;2022-09-29T04:52:25;1.40;;;1.30;;
13475;SDS011;6810;63.824;20.288;2022-09-29T04:55:12;1.60;;;1.10;;
13475;SDS011;6810;63.824;20.288;2022-09-29T04:57:59;1.27;;;1.17;;
13475;SDS011;6810;63.824;20.288;2022-09-29T05:00:46;3.43;;;1.20;;
13475;SDS011;6810;63.824;20.288;2022-09-29T05:03:33;1.70;;;1.40;;
13475;SDS011;6810;63.824;20.288;2022-09-29T05:06:20;1.60;;;1.37;;
13475;SDS011;6810;63.824;20.288;2022-09-29T05:09:07;2.17;;;1.20;;
13475;SDS011;6810;63.824;20.288;2022-09-29T05:11:59;1.70;;;1.07;;
13475;SDS011;6810;63.824;20.288;2022-09-29T05:14:46;3.33;;;1.23;;
13475;SDS011;6810;63.824;20.288;2022-09-29T05:17:33;1.80;;;1.30;;
13475;SDS011;6810;63.824;20.288;2022-09-29T05:20:20;3.23;;;1.33;;
13475;SDS011;6810;63.824;20.288;2022-09-29T05:23:24;1.27;;;1.10;;
13475;SDS011;6810;63.824;20.288;2022-09-29T05:26:11;1.37;;;1.23;;
13475;SDS011;6810;63.824;20.288;2022-09-29T05:28:58;1.57;;;1.30;;
13475;SDS011;6810;63.824;20.288;2022-09-29T05:31:46;2.77;;;1.33;;
13475;SDS011;6810;63.824;20.288;2022-09-29T05:34:33;2.50;;;1.20;;
13475;SDS011;6810;63.824;20.288;2022-09-29T05:37:20;2.33;;;1.20;;
13475;SDS011;6810;63.824;20.288;2022-09-29T05:40:07;1.60;;;1.30;;
13475;SDS011;6810;63.824;20.288;2022-09-29T05:42:54;2.00;;;1.40;;
13475;SDS011;6810;63.824;20.288;2022-09-29T05:45:21;1.60;;;1.10;;
13475;SDS011;6810;63.824;20.288;2022-09-29T05:47:48;2.00;;;1.50;;
13475;SDS011;6810;63.824;20.288;2022-09-29T05:50:35;1.53;;;1.30;;
13475;SDS011;6810;63.824;20.288;2022-09-29T05:53:25;2.40;;;1.43;;
13475;SDS011;6810;63.824;20.288;2022-09-29T05:56:13;2.57;;;1.27;;
13475;SDS011;6810;63.824;20.288;2022-09-29T05:59:07;2.33;;;1.47;;
13475;SDS011;6810;63.824;20.288;2022-09-29T06:01:55;2.27;;;1.33;;
13475;SDS011;6810;63.824;20.288;2022-09-29T06:04:43;1.37;;;1.17;;
13475;SDS011;6810;63.824;20.288;2022-09-29T06:07:30;2.70;;;1.30;;
13475;SDS011;6810;63.824;20.288;2022-09-29T06:10:17;2.20;;;1.33;;
13475;SDS011;6810;63.824;20.288;2022-09-29T06:13:04;1.57;;;1.30;;
13475;SDS011;6810;63.824;20.288;2022-09-29T06:15:51;2.03;;;1.27;;
13475;SDS011;6810;63.824;20.288;2022-09-29T06:18:38;1.20;;;1.10;;
13475;SDS011;6810;63.824;20.288;2022-09-29T06:21:26;3.13;;;1.50;;
13475;SDS011;6810;63.824;20.288;2022-09-29T06:24:14;2.80;;;1.33;;
13475;SDS011;6810;63.824;20.288;2022-09-29T06:27:01;1.60;;;1.30;;
13475;SDS011;6810;63.824;20.288;2022-09-29T06:29:48;2.80;;;1.27;;
13475;SDS011;6810;63.824;20.288;2022-09-29T06:32:35;1.60;;;1.30;;
13475;SDS011;6810;63.824;20.288;2022-09-29T06:35:21;2.23;;;1.50;;
13475;SDS011;6810;63.824;20.288;2022-09-29T06:38:07;3.40;;;1.40;;
13475;SDS011;6810;63.824;20.288;2022-09-29T06:40:54;2.50;;;1.40;;
13475;SDS011;6810;63.824;20.288;2022-09-29T06:43:41;1.47;;;1.27;;
13475;SDS011;6810;63.824;20.288;2022-09-29T06:46:08;1.93;;;1.23;;
13475;SDS011;6810;63.824;20.288;2022-09-29T06:48:35;4.43;;;1.60;;
13475;SDS011;6810;63.824;20.288;2022-09-29T06:51:06;2.10;;;1.33;;
13475;SDS011;6810;63.824;20.288;2022-09-29T06:54:09;2.37;;;1.33;;
13475;SDS011;6810;63.824;20.288;2022-09-29T06:56:57;1.70;;;1.57;;
13475;SDS011;6810;63.824;20.288;2022-09-29T06:59:44;1.90;;;1.43;;
13475;SDS011;6810;63.824;20.288;2022-09-29T07:02:36;1.53;;;1.30;;
13475;SDS011;6810;63.824;20.288;2022-09-29T07:05:23;1.97;;;1.13;;
13475;SDS011;6810;63.824;20.288;2022-09-29T07:08:27;3.03;;;1.57;;
13475;SDS011;6810;63.824;20.288;2022-09-29T07:11:14;1.43;;;1.17;;
13475;SDS011;6810;63.824;20.288;2022-09-29T07:14:01;3.73;;;1.63;;
13475;SDS011;6810;63.824;20.288;2022-09-29T07:16:48;1.23;;;1.13;;
13475;SDS011;6810;63.824;20.288;2022-09-29T07:19:35;2.03;;;1.23;;
13475;SDS011;6810;63.824;20.288;2022-09-29T07:22:22;1.50;;;1.20;;
13475;SDS011;6810;63.824;20.288;2022-09-29T07:25:09;1.33;;;1.20;;
13475;SDS011;6810;63.824;20.288;2022-09-29T07:28:17;8.07;;;1.90;;
13475;SDS011;6810;63.824;20.288;2022-09-29T07:31:05;1.70;;;1.30;;
13475;SDS011;6810;63.824;20.288;2022-09-29T07:34:14;2.13;;;1.50;;
13475;SDS011;6810;63.824;20.288;2022-09-29T07:37:01;1.57;;;1.37;;
13475;SDS011;6810;63.824;20.288;2022-09-29T07:39:48;1.70;;;1.43;;
13475;SDS011;6810;63.824;20.288;2022-09-29T07:42:35;1.87;;;1.07;;
13475;SDS011;6810;63.824;20.288;2022-09-29T07:45:22;1.37;;;1.23;;
13475;SDS011;6810;63.824;20.288;2022-09-29T07:48:09;1.93;;;1.40;;
13475;SDS011;6810;63.824;20.288;2022-09-29T07:51:01;2.17;;;1.20;;
13475;SDS011;6810;63.824;20.288;2022-09-29T07:53:49;1.33;;;1.23;;
13475;SDS011;6810;63.824;20.288;2022-09-29T07:56:36;1.17;;;1.00;;
13475;SDS011;6810;63.824;20.288;2022-09-29T07:59:23;2.63;;;1.63;;
13475;SDS011;6810;63.824;20.288;2022-09-29T08:02:18;1.40;;;1.23;;
13475;SDS011;6810;63.824;20.288;2022-09-29T08:05:05;1.43;;;1.17;;
13475;SDS011;6810;63.824;20.288;2022-09-29T08:07:52;1.73;;;1.40;;
13475;SDS011;6810;63.824;20.288;2022-09-29T08:10:39;1.33;;;1.20;;
13475;SDS011;6810;63.824;20.288;2022-09-29T08:13:26;3.00;;;1.30;;
13475;SDS011;6810;63.824;20.288;2022-09-29T08:16:13;1.60;;;1.30;;
13475;SDS011;6810;63.824;20.288;2022-09-29T08:19:01;1.10;;;1.00;;
13475;SDS011;6810;63.824;20.288;2022-09-29T08:21:49;1.13;;;1.03;;
13475;SDS011;6810;63.824;20.288;2022-09-29T08:24:36;1.40;;;1.00;;
13475;SDS011;6810;63.824;20.288;2022-09-29T08:27:23;1.43;;;1.30;;
13475;SDS011;6810;63.824;20.288;2022-09-29T08:30:21;1.17;;;1.07;;
13475;SDS011;6810;63.824;20.288;2022-09-29T08:32:51;1.33;;;1.03;;
13475;SDS011;6810;63.824;20.288;2022-09-29T08:35:40;2.97;;;1.30;;
13475;SDS011;6810;63.824;20.288;2022-09-29T08:38:27;1.30;;;1.07;;
13475;SDS011;6810;63.824;20.288;2022-09-29T08:41:26;3.73;;;1.40;;
13475;SDS011;6810;63.824;20.288;2022-09-29T08:47:32;2.23;;;1.20;;
13475;SDS011;6810;63.824;20.288;2022-09-29T08:50:36;1.73;;;1.40;;
13475;SDS011;6810;63.824;20.288;2022-09-29T08:53:31;1.50;;;1.40;;
13475;SDS011;6810;63.824;20.288;2022-09-29T08:56:29;2.33;;;1.10;;
13475;SDS011;6810;63.824;20.288;2022-09-29T08:59:16;2.70;;;1.10;;
13475;SDS011;6810;63.824;20.288;2022-09-29T09:02:12;1.93;;;1.10;;
13475;SDS011;6810;63.824;20.288;2022-09-29T09:08:33;1.20;;;1.10;;
13475;SDS011;6810;63.824;20.288;2022-09-29T09:21:17;1.47;;;1.10;;
13475;SDS011;6810;63.824;20.288;2022-09-29T09:27:30;1.03;;;0.93;;
13475;SDS011;6810;63.824;20.288;2022-09-29T09:30:38;1.67;;;1.10;;
13475;SDS011;6810;63.824;20.288;2022-09-29T09:33:53;1.40;;;1.27;;
13475;SDS011;6810;63.824;20.288;2022-09-29T09:37:05;3.13;;;1.00;;
13475;SDS011;6810;63.824;20.288;2022-09-29T09:42:51;0.87;;;0.87;;
13475;SDS011;6810;63.824;20.288;2022-09-29T09:45:45;1.87;;;1.23;;
13475;SDS011;6810;63.824;20.288;2022-09-29T09:48:39;3.37;;;1.30;;
13475;SDS011;6810;63.824;20.288;2022-09-29T10:01:06;4.30;;;1.33;;
13475;SDS011;6810;63.824;20.288;2022-09-29T10:03:40;1.30;;;1.07;;
13475;SDS011;6810;63.824;20.288;2022-09-29T10:06:28;1.03;;;0.93;;
13475;SDS011;6810;63.824;20.288;2022-09-29T10:09:15;1.40;;;1.17;;
13475;SDS011;6810;63.824;20.288;2022-09-29T10:12:02;2.73;;;1.40;;
13475;SDS011;6810;63.824;20.288;2022-09-29T10:15:00;2.70;;;1.50;;
13475;SDS011;6810;63.824;20.288;2022-09-29T10:18:02;4.00;;;2.03;;
13475;SDS011;6810;63.824;20.288;2022-09-29T10:20:52;1.37;;;1.27;;
13475;SDS011;6810;63.824;20.288;2022-09-29T10:23:39;1.50;;;1.37;;
13475;SDS011;6810;63.824;20.288;2022-09-29T10:26:41;1.40;;;1.30;;
13475;SDS011;6810;63.824;20.288;2022-09-29T10:29:36;2.47;;;1.60;;
13475;SDS011;6810;63.824;20.288;2022-09-29T10:32:29;2.83;;;2.00;;
13475;SDS011;6810;63.824;20.288;2022-09-29T10:35:24;3.83;;;1.60;;
13475;SDS011;6810;63.824;20.288;2022-09-29T10:38:19;2.43;;;1.40;;
13475;SDS011;6810;63.824;20.288;2022-09-29T10:41:12;5.63;;;1.90;;
13475;SDS011;6810;63.824;20.288;2022-09-29T10:44:12;1.87;;;1.30;;
13475;SDS011;6810;63.824;20.288;2022-09-29T10:47:06;1.60;;;1.20;;
13475;SDS011;6810;63.824;20.288;2022-09-29T10:50:18;1.57;;;1.47;;
13475;SDS011;6810;63.824;20.288;2022-09-29T10:53:18;1.80;;;1.30;;
13475;SDS011;6810;63.824;20.288;2022-09-29T10:56:16;2.20;;;1.70;;
13475;SDS011;6810;63.824;20.288;2022-09-29T10:59:06;2.73;;;1.50;;
13475;SDS011;6810;63.824;20.288;2022-09-29T11:01:57;1.63;;;1.53;;
13475;SDS011;6810;63.824;20.288;2022-09-29T11:04:31;1.83;;;1.60;;
13475;SDS011;6810;63.824;20.288;2022-09-29T11:07:19;2.43;;;1.43;;
13475;SDS011;6810;63.824;20.288;2022-09-29T11:10:17;4.17;;;1.33;;
13475;SDS011;6810;63.824;20.288;2022-09-29T11:16:17;6.07;;;1.67;;
13475;SDS011;6810;63.824;20.288;2022-09-29T11:19:10;2.07;;;1.60;;
13475;SDS011;6810;63.824;20.288;2022-09-29T11:22:19;5.67;;;1.93;;
13475;SDS011;6810;63.824;20.288;2022-09-29T11:34:46;3.10;;;1.60;;
13475;SDS011;6810;63.824;20.288;2022-09-29T11:55:47;2.60;;;2.30;;
13475;SDS011;6810;63.824;20.288;2022-09-29T12:02:08;4.70;;;2.57;;
13475;SDS011;6810;63.824;20.288;2022-09-29T12:05:17;2.70;;;2.30;;
13475;SDS011;6810;63.824;20.288;2022-09-29T12:18:09;2.73;;;2.40;;
13475;SDS011;6810;63.824;20.288;2022-09-29T12:21:00;2.93;;;2.63;;
13475;SDS011;6810;63.824;20.288;2022-09-29T12:23:49;2.50;;;2.30;;
13475;SDS011;6810;63.824;20.288;2022-09-29T12:26:36;2.47;;;2.27;;
13475;SDS011;6810;63.824;20.288;2022-09-29T12:29:35;2.70;;;2.50;;
13475;SDS011;6810;63.824;20.288;2022-09-29T12:37:50;3.07;;;2.57;;
13475;SDS011;6810;63.824;20.288;2022-09-29T12:43:50;2.87;;;2.40;;
13475;SDS011;6810;63.824;20.288;2022-09-29T12:47:03;2.83;;;2.60;;
13475;SDS011;6810;63.824;20.288;2022-09-29T12:50:00;2.50;;;2.30;;
13475;SDS011;6810;63.824;20.288;2022-09-29T12:52:53;2.57;;;2.37;;
13475;SDS011;6810;63.824;20.288;2022-09-29T13:01:36;6.23;;;2.57;;
13475;SDS011;6810;63.824;20.288;2022-09-29T13:16:38;3.93;;;3.00;;
13475;SDS011;6810;63.824;20.288;2022-09-29T13:29:09;22.37;;;4.83;;
13475;SDS011;6810;63.824;20.288;2022-09-29T13:31:59;3.43;;;2.80;;
13475;SDS011;6810;63.824;20.288;2022-09-29T13:34:52;4.47;;;2.87;;
13475;SDS011;6810;63.824;20.288;2022-09-29T13:37:46;3.17;;;2.87;;
13475;SDS011;6810;63.824;20.288;2022-09-29T13:40:36;3.30;;;2.77;;
13475;SDS011;6810;63.824;20.288;2022-09-29T13:43:39;4.87;;;3.00;;
13475;SDS011;6810;63.824;20.288;2022-09-29T13:46:45;3.03;;;2.30;;
13475;SDS011;6810;63.824;20.288;2022-09-29T13:49:32;3.47;;;2.90;;
13475;SDS011;6810;63.824;20.288;2022-09-29T13:52:29;3.10;;;2.63;;
13475;SDS011;6810;63.824;20.288;2022-09-29T14:01:34;2.70;;;2.50;;
13475;SDS011;6810;63.824;20.288;2022-09-29T14:07:42;3.07;;;2.70;;
13475;SDS011;6810;63.824;20.288;2022-09-29T14:13:26;2.73;;;2.40;;
13475;SDS011;6810;63.824;20.288;2022-09-29T14:16:28;3.27;;;2.77;;
13475;SDS011;6810;63.824;20.288;2022-09-29T14:28:25;2.10;;;1.90;;
13475;SDS011;6810;63.824;20.288;2022-09-29T14:31:19;1.57;;;1.47;;
13475;SDS011;6810;63.824;20.288;2022-09-29T14:34:08;1.77;;;1.50;;
13475;SDS011;6810;63.824;20.288;2022-09-29T14:37:01;1.90;;;1.70;;
13475;SDS011;6810;63.824;20.288;2022-09-29T14:39:48;1.67;;;1.50;;
13475;SDS011;6810;63.824;20.288;2022-09-29T14:42:35;2.23;;;1.47;;
13475;SDS011;6810;63.824;20.288;2022-09-29T14:45:22;2.00;;;1.03;;
13475;SDS011;6810;63.824;20.288;2022-09-29T14:48:10;1.63;;;1.50;;
13475;SDS011;6810;63.824;20.288;2022-09-29T14:51:10;1.10;;;1.00;;
13475;SDS011;6810;63.824;20.288;2022-09-29T14:54:17;0.83;;;0.70;;
13475;SDS011;6810;63.824;20.288;2022-09-29T15:00:15;3.00;;;1.80;;
13475;SDS011;6810;63.824;20.288;2022-09-29T15:03:30;1.27;;;0.93;;
13475;SDS011;6810;63.824;20.288;2022-09-29T15:06:28;1.10;;;0.80;;
13475;SDS011;6810;63.824;20.288;2022-09-29T15:09:17;1.70;;;0.70;;
13475;SDS011;6810;63.824;20.288;2022-09-29T15:12:11;1.00;;;0.60;;
13475;SDS011;6810;63.824;20.288;2022-09-29T15:15:00;1.80;;;0.80;;
13475;SDS011;6810;63.824;20.288;2022-09-29T15:17:50;2.00;;;1.33;;
13475;SDS011;6810;63.824;20.288;2022-09-29T15:27:11;0.80;;;0.77;;
13475;SDS011;6810;63.824;20.288;2022-09-29T15:30:00;1.10;;;0.70;;
13475;SDS011;6810;63.824;20.288;2022-09-29T15:32:47;1.80;;;0.70;;
13475;SDS011;6810;63.824;20.288;2022-09-29T15:35:38;1.00;;;0.73;;
13475;SDS011;6810;63.824;20.288;2022-09-29T15:38:30;1.37;;;0.70;;
13475;SDS011;6810;63.824;20.288;2022-09-29T15:41:21;1.80;;;0.80;;
13475;SDS011;6810;63.824;20.288;2022-09-29T15:44:12;4.57;;;0.90;;
13475;SDS011;6810;63.824;20.288;2022-09-29T15:47:01;3.13;;;0.77;;
13475;SDS011;6810;63.824;20.288;2022-09-29T15:49:48;1.00;;;0.90;;
13475;SDS011;6810;63.824;20.288;2022-09-29T15:52:39;1.03;;;0.87;;
13475;SDS011;6810;63.824;20.288;2022-09-29T15:55:26;1.77;;;0.80;;
13475;SDS011;6810;63.824;20.288;2022-09-29T16:01:30;1.10;;;0.80;;
13475;SDS011;6810;63.824;20.288;2022-09-29T16:04:17;1.10;;;0.77;;
13475;SDS011;6810;63.824;20.288;2022-09-29T16:07:04;1.73;;;1.37;;
13475;SDS011;6810;63.824;20.288;2022-09-29T16:09:51;1.47;;;0.80;;
13475;SDS011;6810;63.824;20.288;2022-09-29T16:12:39;2.30;;;0.93;;
13475;SDS011;6810;63.824;20.288;2022-09-29T16:15:34;1.87;;;1.00;;
13475;SDS011;6810;63.824;20.288;2022-09-29T16:18:37;1.50;;;1.03;;
13475;SDS011;6810;63.824;20.288;2022-09-29T16:21:33;1.40;;;0.97;;
13475;SDS011;6810;63.824;20.288;2022-09-29T16:24:22;1.27;;;0.80;;
13475;SDS011;6810;63.824;20.288;2022-09-29T16:33:21;0.77;;;0.77;;
13475;SDS011;6810;63.824;20.288;2022-09-29T16:36:17;2.03;;;0.90;;
13475;SDS011;6810;63.824;20.288;2022-09-29T16:39:06;1.90;;;1.00;;
13475;SDS011;6810;63.824;20.288;2022-09-29T16:42:02;1.10;;;0.90;;
13475;SDS011;6810;63.824;20.288;2022-09-29T16:44:49;1.47;;;0.83;;
13475;SDS011;6810;63.824;20.288;2022-09-29T16:47:37;2.50;;;0.80;;
13475;SDS011;6810;63.824;20.288;2022-09-29T16:50:24;1.63;;;0.97;;
13475;SDS011;6810;63.824;20.288;2022-09-29T16:53:25;1.13;;;0.97;;
13475;SDS011;6810;63.824;20.288;2022-09-29T16:56:17;2.30;;;0.90;;
13475;SDS011;6810;63.824;20.288;2022-09-29T16:59:15;0.90;;;0.60;;
13475;SDS011;6810;63.824;20.288;2022-09-29T17:02:07;1.80;;;0.87;;
13475;SDS011;6810;63.824;20.288;2022-09-29T17:04:55;1.83;;;0.90;;
13475;SDS011;6810;63.824;20.288;2022-09-29T17:07:42;1.00;;;0.90;;
13475;SDS011;6810;63.824;20.288;2022-09-29T17:10:30;1.40;;;0.70;;
13475;SDS011;6810;63.824;20.288;2022-09-29T17:13:17;1.27;;;0.80;;
13475;SDS011;6810;63.824;20.288;2022-09-29T17:16:05;0.70;;;0.70;;
13475;SDS011;6810;63.824;20.288;2022-09-29T17:18:52;1.33;;;1.00;;
13475;SDS011;6810;63.824;20.288;2022-09-29T17:21:39;0.93;;;0.93;;
13475;SDS011;6810;63.824;20.288;2022-09-29T17:24:26;2.83;;;0.90;;
13475;SDS011;6810;63.824;20.288;2022-09-29T17:27:13;1.17;;;1.00;;
13475;SDS011;6810;63.824;20.288;2022-09-29T17:29:59;3.07;;;0.90;;
13475;SDS011;6810;63.824;20.288;2022-09-29T17:32:46;3.10;;;0.90;;
13475;SDS011;6810;63.824;20.288;2022-09-29T17:35:37;2.70;;;0.83;;
13475;SDS011;6810;63.824;20.288;2022-09-29T17:38:25;0.70;;;0.70;;
13475;SDS011;6810;63.824;20.288;2022-09-29T17:41:12;1.07;;;0.97;;
13475;SDS011;6810;63.824;20.288;2022-09-29T17:43:59;1.20;;;0.70;;
13475;SDS011;6810;63.824;20.288;2022-09-29T17:46:46;0.73;;;0.73;;
13475;SDS011;6810;63.824;20.288;2022-09-29T17:49:53;1.93;;;0.90;;
13475;SDS011;6810;63.824;20.288;2022-09-29T17:52:40;1.47;;;0.90;;
13475;SDS011;6810;63.824;20.288;2022-09-29T17:55:26;1.80;;;0.80;;
13475;SDS011;6810;63.824;20.288;2022-09-29T17:58:14;2.00;;;1.30;;
13475;SDS011;6810;63.824;20.288;2022-09-29T18:01:02;0.73;;;0.73;;
13475;SDS011;6810;63.824;20.288;2022-09-29T18:03:49;0.63;;;0.63;;
13475;SDS011;6810;63.824;20.288;2022-09-29T18:06:36;0.80;;;0.80;;
13475;SDS011;6810;63.824;20.288;2022-09-29T18:09:22;1.37;;;1.00;;
13475;SDS011;6810;63.824;20.288;2022-09-29T18:12:10;1.37;;;0.80;;
13475;SDS011;6810;63.824;20.288;2022-09-29T18:14:56;0.83;;;0.70;;
13475;SDS011;6810;63.824;20.288;2022-09-29T18:17:44;0.90;;;0.77;;
13475;SDS011;6810;63.824;20.288;2022-09-29T18:20:32;2.23;;;0.73;;
13475;SDS011;6810;63.824;20.288;2022-09-29T18:23:20;1.13;;;0.90;;
13475;SDS011;6810;63.824;20.288;2022-09-29T18:26:09;2.30;;;1.00;;
13475;SDS011;6810;63.824;20.288;2022-09-29T18:28:58;1.13;;;0.90;;
13475;SDS011;6810;63.824;20.288;2022-09-29T18:31:45;1.53;;;0.80;;
13475;SDS011;6810;63.824;20.288;2022-09-29T18:34:32;0.80;;;0.80;;
13475;SDS011;6810;63.824;20.288;2022-09-29T18:37:19;0.80;;;0.80;;
13475;SDS011;6810;63.824;20.288;2022-09-29T18:40:06;1.17;;;0.93;;
13475;SDS011;6810;63.824;20.288;2022-09-29T18:42:53;1.17;;;0.97;;
13475;SDS011;6810;63.824;20.288;2022-09-29T18:45:44;1.33;;;0.80;;
13475;SDS011;6810;63.824;20.288;2022-09-29T18:48:31;1.30;;;1.00;;
13475;SDS011;6810;63.824;20.288;2022-09-29T18:51:18;1.13;;;1.03;;
13475;SDS011;6810;63.824;20.288;2022-09-29T18:54:05;0.87;;;0.80;;
13475;SDS011;6810;63.824;20.288;2022-09-29T18:56:52;1.20;;;1.10;;
13475;SDS011;6810;63.824;20.288;2022-09-29T18:59:39;1.03;;;0.80;;
13475;SDS011;6810;63.824;20.288;2022-09-29T19:02:26;1.70;;;0.80;;
13475;SDS011;6810;63.824;20.288;2022-09-29T19:05:17;1.00;;;0.80;;
13475;SDS011;6810;63.824;20.288;2022-09-29T19:08:09;2.10;;;0.90;;
13475;SDS011;6810;63.824;20.288;2022-09-29T19:10:58;1.90;;;1.00;;
13475;SDS011;6810;63.824;20.288;2022-09-29T19:13:45;1.57;;;0.90;;
13475;SDS011;6810;63.824;20.288;2022-09-29T19:16:33;1.83;;;0.90;;
13475;SDS011;6810;63.824;20.288;2022-09-29T19:19:20;1.43;;;1.00;;
13475;SDS011;6810;63.824;20.288;2022-09-29T19:22:07;1.23;;;0.90;;
13475;SDS011;6810;63.824;20.288;2022-09-29T19:24:54;1.07;;;0.97;;
13475;SDS011;6810;63.824;20.288;2022-09-29T19:27:41;3.17;;;1.00;;
13475;SDS011;6810;63.824;20.288;2022-09-29T19:30:30;2.53;;;1.40;;
13475;SDS011;6810;63.824;20.288;2022-09-29T19:33:21;2.13;;;1.10;;
13475;SDS011;6810;63.824;20.288;2022-09-29T19:36:12;1.57;;;1.10;;
13475;SDS011;6810;63.824;20.288;2022-09-29T19:39:00;1.00;;;0.90;;
13475;SDS011;6810;63.824;20.288;2022-09-29T19:41:48;1.37;;;1.10;;
13475;SDS011;6810;63.824;20.288;2022-09-29T19:44:36;1.13;;;1.00;;
13475;SDS011;6810;63.824;20.288;2022-09-29T19:47:24;1.03;;;0.80;;
13475;SDS011;6810;63.824;20.288;2022-09-29T19:50:11;1.30;;;1.00;;
13475;SDS011;6810;63.824;20.288;2022-09-29T19:52:57;0.93;;;0.90;;
13475;SDS011;6810;63.824;20.288;2022-09-29T19:55:44;1.70;;;0.80;;
13475;SDS011;6810;63.824;20.288;2022-09-29T19:58:31;1.50;;;1.40;;
13475;SDS011;6810;63.824;20.288;2022-09-29T20:01:18;1.53;;;1.30;;
13475;SDS011;6810;63.824;20.288;2022-09-29T20:04:05;1.17;;;1.07;;
13475;SDS011;6810;63.824;20.288;2022-09-29T20:06:55;2.23;;;1.57;;